Yuzanmaru — JD2427 — position and weather

sailwx.info

Track history (hours):
 
Tides and Currents Weather Stations Pressure Air Temp Water Temp Dewpoint Dewpoint Depression Visibility Wind Speed Wind Dir Waves Ship Positions

Yuzanmaru

Last reported at 2017-Sep-20 21:35 UTC. Time now 2017-Sep-22 09:47 UTC.
Position N 34°03' E 134°59'.

Length 74 m; draft 5.2 m.

Type: Cargo ship. MMSI: 431000189.

Date/timePositionNaut miles runAvg speedWind from/ knotsBaromVisibWave heightAir tempDewpointWater temp
2017-Sep-20 21:35N 34°03' E 134°59'412.2
2017-Sep-20 21:17N 34°07' E 135°01'312.3
2017-Sep-20 21:00N 34°10' E 135°03'610.9
2017-Sep-20 20:29N 34°14' E 135°06'1 2.7
2017-Sep-20 20:00N 34°14' E 135°08'0 0.0
2017-Sep-20 19:30N 34°14' E 135°08'0 0.0
2017-Sep-20 19:00N 34°14' E 135°08'0 0.0
2017-Sep-20 18:30N 34°14' E 135°08'0 0.0
2017-Sep-20 18:00N 34°14' E 135°08'0 0.0
2017-Sep-20 17:30N 34°14' E 135°08'0 0.0
2017-Sep-20 17:00N 34°14' E 135°08'0 0.0
2017-Sep-20 16:30N 34°14' E 135°08'0 0.0
2017-Sep-20 16:00N 34°14' E 135°08'0 0.0
2017-Sep-20 15:30N 34°14' E 135°08'0 0.0
2017-Sep-20 15:00N 34°14' E 135°08'0 0.0
2017-Sep-20 14:00N 34°14' E 135°08'0 0.0
2017-Sep-20 13:30N 34°14' E 135°08'0 0.0
2017-Sep-20 13:00N 34°14' E 135°08'0 0.0
2017-Sep-20 12:30N 34°14' E 135°08'0 0.0
2017-Sep-20 12:00N 34°14' E 135°08'0 0.0
2017-Sep-20 11:30N 34°14' E 135°08'0 0.0
2017-Sep-20 11:00N 34°14' E 135°08'0 0.0
2017-Sep-20 10:30N 34°14' E 135°08'0 0.0
2017-Sep-20 10:00N 34°14' E 135°08'1 2.8
2017-Sep-20 09:30N 34°15' E 135°06'0 0.0
2017-Sep-20 09:00N 34°15' E 135°06'0 0.1
2017-Sep-20 08:30N 34°15' E 135°06'2 4.0
2017-Sep-20 08:00N 34°13' E 135°05'612.2
2017-Sep-20 07:30N 34°08' E 135°01'612.0
2017-Sep-20 06:58N 34°02' E 134°58'5 0.1
2017-Sep-18 19:48N 34°06' E 135°01'411.8
2017-Sep-18 19:28N 34°10' E 135°03'511.0
2017-Sep-18 19:00N 34°14' E 135°06'2 3.9
2017-Sep-18 18:30N 34°14' E 135°08'0 0.0
2017-Sep-18 18:00N 34°14' E 135°08'0 0.0
2017-Sep-18 17:30N 34°14' E 135°08'0 0.0
2017-Sep-18 17:00N 34°14' E 135°08'0 0.0
2017-Sep-18 16:30N 34°14' E 135°08'0 0.0
2017-Sep-18 16:00N 34°14' E 135°08'0 0.0
2017-Sep-18 15:30N 34°14' E 135°08'0 0.0
2017-Sep-18 15:00N 34°14' E 135°08'0 0.0
2017-Sep-18 14:30N 34°14' E 135°08'0 0.0
2017-Sep-18 14:00N 34°14' E 135°08'0 0.0
2017-Sep-18 13:30N 34°14' E 135°08'0 0.0
2017-Sep-18 13:00N 34°14' E 135°08'0 0.0
2017-Sep-18 12:30N 34°14' E 135°08'0 0.0
2017-Sep-18 12:00N 34°14' E 135°08'0 0.0
2017-Sep-18 11:30N 34°14' E 135°08'0 0.3
2017-Sep-18 11:00N 34°14' E 135°08'3 6.7
2017-Sep-18 10:30N 34°12' E 135°04'  
2017-Sep-15 21:39N 34°08' E 135°02'212.8
2017-Sep-15 21:30N 34°10' E 135°03'511.1
2017-Sep-15 21:01N 34°14' E 135°06'2 3.3
2017-Sep-15 20:30N 34°14' E 135°08'0 0.0
2017-Sep-15 20:00N 34°14' E 135°08'0 0.0
2017-Sep-15 19:30N 34°14' E 135°08'0 0.0
2017-Sep-15 19:00N 34°14' E 135°08'0 0.0
2017-Sep-15 18:30N 34°14' E 135°08'0 0.0
2017-Sep-15 18:00N 34°14' E 135°08'0 0.0
2017-Sep-15 17:30N 34°14' E 135°08'0 0.0
2017-Sep-15 17:00N 34°14' E 135°08'0 0.0
2017-Sep-15 16:30N 34°14' E 135°08'0 0.0
2017-Sep-15 16:00N 34°14' E 135°08'0 0.0
2017-Sep-15 15:30N 34°14' E 135°08'0 0.0
2017-Sep-15 15:00N 34°14' E 135°08'0 0.0
2017-Sep-15 14:30N 34°14' E 135°08'0 0.0
2017-Sep-15 14:00N 34°14' E 135°08'0 0.0
2017-Sep-15 13:30N 34°14' E 135°08'0 0.0
2017-Sep-15 13:00N 34°14' E 135°08'0 0.0
2017-Sep-15 12:30N 34°14' E 135°08'0 0.1
2017-Sep-15 12:01N 34°14' E 135°08'3 6.5
2017-Sep-15 11:30N 34°13' E 135°04'611.3
2017-Sep-15 10:59N 34°07' E 135°02'2 0.1
2017-Sep-14 14:05N 34°06' E 135°01'112.5
2017-Sep-14 14:00N 34°07' E 135°01'612.5
2017-Sep-14 13:30N 34°12' E 135°04'3 6.5
2017-Sep-14 13:00N 34°14' E 135°08'0 0.2
2017-Sep-14 12:30N 34°14' E 135°08'0 0.0
2017-Sep-14 12:00N 34°14' E 135°08'0 0.0
2017-Sep-14 11:30N 34°14' E 135°08'0 0.0
2017-Sep-14 11:00N 34°14' E 135°08'0 0.0
2017-Sep-14 10:30N 34°14' E 135°08'0 0.0
2017-Sep-14 10:00N 34°14' E 135°08'0 0.0
2017-Sep-14 09:30N 34°14' E 135°08'0 0.0
2017-Sep-14 09:00N 34°14' E 135°08'0 0.0
2017-Sep-14 08:30N 34°14' E 135°08'0 0.0
2017-Sep-14 08:00N 34°14' E 135°08'0 0.0
2017-Sep-14 07:30N 34°14' E 135°08'0 0.0
2017-Sep-14 07:00N 34°14' E 135°08'0 0.0
2017-Sep-14 06:30N 34°14' E 135°08'0 0.0
2017-Sep-14 06:00N 34°14' E 135°08'0 0.0
2017-Sep-14 05:30N 34°14' E 135°08'0 0.0
2017-Sep-14 05:00N 34°14' E 135°08'0 0.0
2017-Sep-14 04:30N 34°14' E 135°08'0 0.0
2017-Sep-14 04:00N 34°14' E 135°08'0 0.0
2017-Sep-14 03:30N 34°14' E 135°08'0 0.0
2017-Sep-14 03:00N 34°14' E 135°08'0 0.0
2017-Sep-14 02:30N 34°14' E 135°08'0 0.0
2017-Sep-14 02:00N 34°14' E 135°08'0 0.0
2017-Sep-14 01:30N 34°14' E 135°08'0 0.0
2017-Sep-14 01:00N 34°14' E 135°08'0 0.0
2017-Sep-14 00:30N 34°14' E 135°08'0 0.1
2017-Sep-14 00:00N 34°14' E 135°08'0 0.1
2017-Sep-13 23:30N 34°14' E 135°08'0 0.0
2017-Sep-13 23:00N 34°14' E 135°08'0 0.0
2017-Sep-13 22:30N 34°14' E 135°08'0 0.0
2017-Sep-13 22:00N 34°14' E 135°08'0 0.0
2017-Sep-13 21:30N 34°14' E 135°08'0 0.0
2017-Sep-13 21:00N 34°14' E 135°08'0 0.0
2017-Sep-13 20:30N 34°14' E 135°08'0 0.0
2017-Sep-13 20:00N 34°14' E 135°08'0 0.0
2017-Sep-13 19:30N 34°14' E 135°08'0 0.0
2017-Sep-13 19:00N 34°14' E 135°08'0 0.0
2017-Sep-13 18:30N 34°14' E 135°08'0 0.0
2017-Sep-13 18:00N 34°14' E 135°08'0 0.0
2017-Sep-13 17:30N 34°14' E 135°08'0 0.0
2017-Sep-13 17:00N 34°14' E 135°08'0 0.1
2017-Sep-13 16:30N 34°14' E 135°08'0 0.1
2017-Sep-13 16:00N 34°14' E 135°08'0 0.0
2017-Sep-13 15:30N 34°14' E 135°08'0 0.0
2017-Sep-13 15:00N 34°14' E 135°08'0 0.0
2017-Sep-13 14:30N 34°14' E 135°08'0 0.0
2017-Sep-13 14:00N 34°14' E 135°08'0 0.0
2017-Sep-13 13:30N 34°14' E 135°08'0 0.0
2017-Sep-13 13:00N 34°14' E 135°08'0 0.0
2017-Sep-13 12:30N 34°14' E 135°08'1 1.9
2017-Sep-13 12:00N 34°14' E 135°07'510.0
2017-Sep-13 11:30N 34°10' E 135°03'4 0.1
2017-Sep-11 08:43N 34°06' E 135°01'211.3
2017-Sep-11 08:30N 34°08' E 135°02'611.1
2017-Sep-11 08:00N 34°13' E 135°05'2 4.8
2017-Sep-11 07:30N 34°14' E 135°08'0 0.0
2017-Sep-11 07:00N 34°14' E 135°08'0 0.0
2017-Sep-11 06:30N 34°14' E 135°08'0 0.0
2017-Sep-11 06:00N 34°14' E 135°08'0 0.0
2017-Sep-11 05:31N 34°14' E 135°08'0 0.0
2017-Sep-11 05:00N 34°14' E 135°08'0 0.0
2017-Sep-11 04:30N 34°14' E 135°08'0 0.0
2017-Sep-11 04:00N 34°14' E 135°08'0 0.0
2017-Sep-11 03:30N 34°14' E 135°08'0 0.0
2017-Sep-11 03:00N 34°14' E 135°08'0 0.0
2017-Sep-11 02:30N 34°14' E 135°08'0 0.0
2017-Sep-11 02:00N 34°14' E 135°08'0 0.0
2017-Sep-11 01:30N 34°14' E 135°08'0 0.0
2017-Sep-11 01:00N 34°14' E 135°08'0 0.0
2017-Sep-11 00:30N 34°14' E 135°08'0 0.0
2017-Sep-11 00:00N 34°14' E 135°08'0 0.0
2017-Sep-10 23:30N 34°14' E 135°08'0 0.0
2017-Sep-10 23:00N 34°14' E 135°08'0 0.0
2017-Sep-10 22:30N 34°14' E 135°08'0 0.1
2017-Sep-10 22:00N 34°14' E 135°08'  
Track history (hours):
 
Tides and Currents Weather Stations Pressure Air Temp Water Temp Dewpoint Dewpoint Depression Visibility Wind Speed Wind Dir Waves Ship Positions

Yuzanmaru

Last reported at 2017-Sep-20 21:35 UTC. Time now 2017-Sep-22 09:47 UTC.
Position N 34°03' E 134°59'.

Length 74 m; draft 5.2 m.

Type: Cargo ship. MMSI: 431000189.

Date/timePositionNaut miles runAvg speedWind from/ knotsBaromVisibWave heightAir tempDewpointWater temp
2017-Sep-20 21:35N 34°03' E 134°59'412.2
2017-Sep-20 21:17N 34°07' E 135°01'312.3
2017-Sep-20 21:00N 34°10' E 135°03'610.9
2017-Sep-20 20:29N 34°14' E 135°06'1 2.7
2017-Sep-20 20:00N 34°14' E 135°08'0 0.0
2017-Sep-20 19:30N 34°14' E 135°08'0 0.0
2017-Sep-20 19:00N 34°14' E 135°08'0 0.0
2017-Sep-20 18:30N 34°14' E 135°08'0 0.0
2017-Sep-20 18:00N 34°14' E 135°08'0 0.0
2017-Sep-20 17:30N 34°14' E 135°08'0 0.0
2017-Sep-20 17:00N 34°14' E 135°08'0 0.0
2017-Sep-20 16:30N 34°14' E 135°08'0 0.0
2017-Sep-20 16:00N 34°14' E 135°08'0 0.0
2017-Sep-20 15:30N 34°14' E 135°08'0 0.0
2017-Sep-20 15:00N 34°14' E 135°08'0 0.0
2017-Sep-20 14:00N 34°14' E 135°08'0 0.0
2017-Sep-20 13:30N 34°14' E 135°08'0 0.0
2017-Sep-20 13:00N 34°14' E 135°08'0 0.0
2017-Sep-20 12:30N 34°14' E 135°08'0 0.0
2017-Sep-20 12:00N 34°14' E 135°08'0 0.0
2017-Sep-20 11:30N 34°14' E 135°08'0 0.0
2017-Sep-20 11:00N 34°14' E 135°08'0 0.0
2017-Sep-20 10:30N 34°14' E 135°08'0 0.0
2017-Sep-20 10:00N 34°14' E 135°08'1 2.8
2017-Sep-20 09:30N 34°15' E 135°06'0 0.0
2017-Sep-20 09:00N 34°15' E 135°06'0 0.1
2017-Sep-20 08:30N 34°15' E 135°06'2 4.0
2017-Sep-20 08:00N 34°13' E 135°05'612.2
2017-Sep-20 07:30N 34°08' E 135°01'612.0
2017-Sep-20 06:58N 34°02' E 134°58'5 0.1
2017-Sep-18 19:48N 34°06' E 135°01'411.8
2017-Sep-18 19:28N 34°10' E 135°03'511.0
2017-Sep-18 19:00N 34°14' E 135°06'2 3.9
2017-Sep-18 18:30N 34°14' E 135°08'0 0.0
2017-Sep-18 18:00N 34°14' E 135°08'0 0.0
2017-Sep-18 17:30N 34°14' E 135°08'0 0.0
2017-Sep-18 17:00N 34°14' E 135°08'0 0.0
2017-Sep-18 16:30N 34°14' E 135°08'0 0.0
2017-Sep-18 16:00N 34°14' E 135°08'0 0.0
2017-Sep-18 15:30N 34°14' E 135°08'0 0.0
2017-Sep-18 15:00N 34°14' E 135°08'0 0.0
2017-Sep-18 14:30N 34°14' E 135°08'0 0.0
2017-Sep-18 14:00N 34°14' E 135°08'0 0.0
2017-Sep-18 13:30N 34°14' E 135°08'0 0.0
2017-Sep-18 13:00N 34°14' E 135°08'0 0.0
2017-Sep-18 12:30N 34°14' E 135°08'0 0.0
2017-Sep-18 12:00N 34°14' E 135°08'0 0.0
2017-Sep-18 11:30N 34°14' E 135°08'0 0.3
2017-Sep-18 11:00N 34°14' E 135°08'3 6.7
2017-Sep-18 10:30N 34°12' E 135°04'  
2017-Sep-15 21:39N 34°08' E 135°02'212.8
2017-Sep-15 21:30N 34°10' E 135°03'511.1
2017-Sep-15 21:01N 34°14' E 135°06'2 3.3
2017-Sep-15 20:30N 34°14' E 135°08'0 0.0
2017-Sep-15 20:00N 34°14' E 135°08'0 0.0
2017-Sep-15 19:30N 34°14' E 135°08'0 0.0
2017-Sep-15 19:00N 34°14' E 135°08'0 0.0
2017-Sep-15 18:30N 34°14' E 135°08'0 0.0
2017-Sep-15 18:00N 34°14' E 135°08'0 0.0
2017-Sep-15 17:30N 34°14' E 135°08'0 0.0
2017-Sep-15 17:00N 34°14' E 135°08'0 0.0
2017-Sep-15 16:30N 34°14' E 135°08'0 0.0
2017-Sep-15 16:00N 34°14' E 135°08'0 0.0
2017-Sep-15 15:30N 34°14' E 135°08'0 0.0
2017-Sep-15 15:00N 34°14' E 135°08'0 0.0
2017-Sep-15 14:30N 34°14' E 135°08'0 0.0
2017-Sep-15 14:00N 34°14' E 135°08'0 0.0
2017-Sep-15 13:30N 34°14' E 135°08'0 0.0
2017-Sep-15 13:00N 34°14' E 135°08'0 0.0
2017-Sep-15 12:30N 34°14' E 135°08'0 0.1
2017-Sep-15 12:01N 34°14' E 135°08'3 6.5
2017-Sep-15 11:30N 34°13' E 135°04'611.3
2017-Sep-15 10:59N 34°07' E 135°02'2 0.1
2017-Sep-14 14:05N 34°06' E 135°01'112.5
2017-Sep-14 14:00N 34°07' E 135°01'612.5
2017-Sep-14 13:30N 34°12' E 135°04'3 6.5
2017-Sep-14 13:00N 34°14' E 135°08'0 0.2
2017-Sep-14 12:30N 34°14' E 135°08'0 0.0
2017-Sep-14 12:00N 34°14' E 135°08'0 0.0
2017-Sep-14 11:30N 34°14' E 135°08'0 0.0
2017-Sep-14 11:00N 34°14' E 135°08'0 0.0
2017-Sep-14 10:30N 34°14' E 135°08'0 0.0
2017-Sep-14 10:00N 34°14' E 135°08'0 0.0
2017-Sep-14 09:30N 34°14' E 135°08'0 0.0
2017-Sep-14 09:00N 34°14' E 135°08'0 0.0
2017-Sep-14 08:30N 34°14' E 135°08'0 0.0
2017-Sep-14 08:00N 34°14' E 135°08'0 0.0
2017-Sep-14 07:30N 34°14' E 135°08'0 0.0
2017-Sep-14 07:00N 34°14' E 135°08'0 0.0
2017-Sep-14 06:30N 34°14' E 135°08'0 0.0
2017-Sep-14 06:00N 34°14' E 135°08'0 0.0
2017-Sep-14 05:30N 34°14' E 135°08'0 0.0
2017-Sep-14 05:00N 34°14' E 135°08'0 0.0
2017-Sep-14 04:30N 34°14' E 135°08'0 0.0
2017-Sep-14 04:00N 34°14' E 135°08'0 0.0
2017-Sep-14 03:30N 34°14' E 135°08'0 0.0
2017-Sep-14 03:00N 34°14' E 135°08'0 0.0
2017-Sep-14 02:30N 34°14' E 135°08'0 0.0
2017-Sep-14 02:00N 34°14' E 135°08'0 0.0
2017-Sep-14 01:30N 34°14' E 135°08'0 0.0
2017-Sep-14 01:00N 34°14' E 135°08'0 0.0
2017-Sep-14 00:30N 34°14' E 135°08'0 0.1
2017-Sep-14 00:00N 34°14' E 135°08'0 0.1
2017-Sep-13 23:30N 34°14' E 135°08'0 0.0
2017-Sep-13 23:00N 34°14' E 135°08'0 0.0
2017-Sep-13 22:30N 34°14' E 135°08'0 0.0
2017-Sep-13 22:00N 34°14' E 135°08'0 0.0
2017-Sep-13 21:30N 34°14' E 135°08'0 0.0
2017-Sep-13 21:00N 34°14' E 135°08'0 0.0
2017-Sep-13 20:30N 34°14' E 135°08'0 0.0
2017-Sep-13 20:00N 34°14' E 135°08'0 0.0
2017-Sep-13 19:30N 34°14' E 135°08'0 0.0
2017-Sep-13 19:00N 34°14' E 135°08'0 0.0
2017-Sep-13 18:30N 34°14' E 135°08'0 0.0
2017-Sep-13 18:00N 34°14' E 135°08'0 0.0
2017-Sep-13 17:30N 34°14' E 135°08'0 0.0
2017-Sep-13 17:00N 34°14' E 135°08'0 0.1
2017-Sep-13 16:30N 34°14' E 135°08'0 0.1
2017-Sep-13 16:00N 34°14' E 135°08'0 0.0
2017-Sep-13 15:30N 34°14' E 135°08'0 0.0
2017-Sep-13 15:00N 34°14' E 135°08'0 0.0
2017-Sep-13 14:30N 34°14' E 135°08'0 0.0
2017-Sep-13 14:00N 34°14' E 135°08'0 0.0
2017-Sep-13 13:30N 34°14' E 135°08'0 0.0
2017-Sep-13 13:00N 34°14' E 135°08'0 0.0
2017-Sep-13 12:30N 34°14' E 135°08'1 1.9
2017-Sep-13 12:00N 34°14' E 135°07'510.0
2017-Sep-13 11:30N 34°10' E 135°03'4 0.1
2017-Sep-11 08:43N 34°06' E 135°01'211.3
2017-Sep-11 08:30N 34°08' E 135°02'611.1
2017-Sep-11 08:00N 34°13' E 135°05'2 4.8
2017-Sep-11 07:30N 34°14' E 135°08'0 0.0
2017-Sep-11 07:00N 34°14' E 135°08'0 0.0
2017-Sep-11 06:30N 34°14' E 135°08'0 0.0
2017-Sep-11 06:00N 34°14' E 135°08'0 0.0
2017-Sep-11 05:31N 34°14' E 135°08'0 0.0
2017-Sep-11 05:00N 34°14' E 135°08'0 0.0
2017-Sep-11 04:30N 34°14' E 135°08'0 0.0
2017-Sep-11 04:00N 34°14' E 135°08'0 0.0
2017-Sep-11 03:30N 34°14' E 135°08'0 0.0
2017-Sep-11 03:00N 34°14' E 135°08'0 0.0
2017-Sep-11 02:30N 34°14' E 135°08'0 0.0
2017-Sep-11 02:00N 34°14' E 135°08'0 0.0
2017-Sep-11 01:30N 34°14' E 135°08'0 0.0
2017-Sep-11 01:00N 34°14' E 135°08'0 0.0
2017-Sep-11 00:30N 34°14' E 135°08'0 0.0
2017-Sep-11 00:00N 34°14' E 135°08'0 0.0
2017-Sep-10 23:30N 34°14' E 135°08'0 0.0
2017-Sep-10 23:00N 34°14' E 135°08'0 0.0
2017-Sep-10 22:30N 34°14' E 135°08'0 0.1
2017-Sep-10 22:00N 34°14' E 135°08'  

Dump ship's entire track history